createdAt,value
2023-03-22T00:02:15.089Z,99308.09
2023-03-22T00:04:43.424Z,99308.09
2023-03-22T00:07:11.301Z,99305.84
2023-03-22T00:09:38.559Z,99299.94
2023-03-22T00:12:06.813Z,99304.06
2023-03-22T00:14:34.223Z,99311.00
2023-03-22T00:17:02.165Z,99299.16
2023-03-22T00:19:29.641Z,99304.47
2023-03-22T00:21:57.525Z,99302.25
2023-03-22T00:24:24.830Z,99299.56
2023-03-22T00:26:52.891Z,99294.69
2023-03-22T00:29:22.561Z,99293.47
2023-03-22T00:31:52.257Z,99285.91
2023-03-22T00:34:19.747Z,99284.69
2023-03-22T00:36:48.506Z,99284.09
2023-03-22T00:39:16.039Z,99296.81
2023-03-22T00:41:44.289Z,99288.66
2023-03-22T00:44:12.571Z,99291.31
2023-03-22T00:46:40.470Z,99274.75
2023-03-22T00:49:07.865Z,99268.59
2023-03-22T00:51:36.181Z,99266.56
2023-03-22T00:54:03.597Z,99279.69
2023-03-22T00:56:34.039Z,99280.13
2023-03-22T00:59:10.174Z,99276.84
2023-03-22T01:01:39.089Z,99265.78
2023-03-22T01:04:07.147Z,99263.78
2023-03-22T01:06:35.612Z,99268.09
2023-03-22T01:09:03.736Z,99262.94
2023-03-22T01:11:31.686Z,99262.13
2023-03-22T01:13:59.780Z,99252.72
2023-03-22T01:16:27.768Z,99249.06
2023-03-22T01:18:56.352Z,99245.81
2023-03-22T01:21:24.299Z,99242.09
2023-03-22T01:23:51.804Z,99250.31
2023-03-22T01:26:19.947Z,99250.47
2023-03-22T01:28:47.530Z,99239.22
2023-03-22T01:31:15.545Z,99238.84
2023-03-22T01:33:43.126Z,99242.09
2023-03-22T01:36:11.568Z,99229.81
2023-03-22T01:38:42.427Z,99223.88
2023-03-22T01:41:10.706Z,99220.03
2023-03-22T01:43:41.418Z,99209.78
2023-03-22T01:46:09.481Z,99213.09
2023-03-22T01:48:46.117Z,99209.38
2023-03-22T01:51:24.963Z,99203.88
2023-03-22T01:54:29.546Z,99209.66
2023-03-22T01:57:03.579Z,99202.91
2023-03-22T01:59:40.922Z,99201.66
2023-03-22T02:02:19.389Z,99200.84
2023-03-22T02:04:58.190Z,99205.34
2023-03-22T02:07:31.954Z,99204.94
2023-03-22T02:10:05.117Z,99200.00
2023-03-22T02:13:05.945Z,99195.09
2023-03-22T02:16:38.346Z,99193.50
2023-03-22T02:20:07.794Z,99194.91
2023-03-22T02:23:09.202Z,99189.59
2023-03-22T02:26:10.693Z,99194.31
2023-03-22T02:29:22.010Z,99185.56
2023-03-22T02:32:29.839Z,99181.25
2023-03-22T02:35:39.636Z,99174.31
2023-03-22T02:39:06.990Z,99175.72
2023-03-22T02:41:56.294Z,99171.50
2023-03-22T02:44:42.354Z,99175.38
2023-03-22T02:47:34.601Z,99172.72
2023-03-22T02:50:49.986Z,99170.06
2023-03-22T02:53:22.645Z,99166.16
2023-03-22T02:56:00.239Z,99171.50
2023-03-22T02:58:38.220Z,99166.16
2023-03-22T03:01:13.437Z,99165.78
2023-03-22T03:03:42.518Z,99178.03
2023-03-22T03:06:16.967Z,99178.88
2023-03-22T03:08:50.784Z,99179.28
2023-03-22T03:11:20.489Z,99172.75
2023-03-22T03:13:50.962Z,99175.19
2023-03-22T03:16:26.693Z,99172.75
2023-03-22T03:19:01.918Z,99183.78
2023-03-22T03:21:49.570Z,99187.50
2023-03-22T03:24:36.907Z,99190.56
2023-03-22T03:27:16.179Z,99182.59
2023-03-22T03:30:03.965Z,99187.31
2023-03-22T03:32:53.606Z,99188.31
2023-03-22T03:35:27.724Z,99184.22
2023-03-22T03:38:10.094Z,99190.38
2023-03-22T03:40:52.032Z,99190.38
2023-03-22T03:43:25.638Z,99194.03
2023-03-22T03:45:56.215Z,99194.03
2023-03-22T03:48:29.285Z,99202.00
2023-03-22T03:50:58.301Z,99196.69
2023-03-22T03:53:26.468Z,99195.28
2023-03-22T03:55:54.015Z,99197.75
2023-03-22T03:58:22.641Z,99193.44
2023-03-22T04:00:51.036Z,99191.19
2023-03-22T04:03:21.990Z,99192.22
2023-03-22T04:06:09.060Z,99194.88
2023-03-22T04:08:41.538Z,99196.94
2023-03-22T04:11:09.587Z,99191.63
2023-03-22T04:13:38.269Z,99198.97
2023-03-22T04:16:11.257Z,99201.84
2023-03-22T04:18:39.366Z,99210.03
2023-03-22T04:21:09.403Z,99206.72
2023-03-22T04:23:49.419Z,99206.72
2023-03-22T04:26:19.637Z,99208.78
2023-03-22T04:28:58.651Z,99214.09
2023-03-22T04:31:27.108Z,99209.59
2023-03-22T04:34:05.734Z,99212.47
2023-03-22T04:36:55.307Z,99219.81
2023-03-22T04:39:28.362Z,99221.88
2023-03-22T04:42:16.002Z,99222.69
2023-03-22T04:44:45.898Z,99221.88
2023-03-22T04:47:13.631Z,99219.63
2023-03-22T04:49:42.234Z,99220.44
2023-03-22T04:52:10.424Z,99222.28
2023-03-22T04:54:39.457Z,99227.81
2023-03-22T04:57:07.592Z,99230.47
2023-03-22T04:59:42.566Z,99233.13
2023-03-22T05:02:10.692Z,99241.91
2023-03-22T05:04:43.194Z,99246.41
2023-03-22T05:07:31.168Z,99237.59
2023-03-22T05:10:03.847Z,99233.34
2023-03-22T05:12:32.007Z,99234.94
2023-03-22T05:15:18.039Z,99239.25
2023-03-22T05:17:46.214Z,99228.41
2023-03-22T05:20:14.881Z,99234.53
2023-03-22T05:22:45.565Z,99230.88
2023-03-22T05:25:13.518Z,99230.88
2023-03-22T05:27:44.698Z,99225.56
2023-03-22T05:30:33.959Z,99230.88
2023-03-22T05:33:09.866Z,99222.28
2023-03-22T05:35:43.880Z,99229.22
2023-03-22T05:38:12.137Z,99229.22
2023-03-22T05:40:45.555Z,99226.16
2023-03-22T05:43:13.960Z,99228.44
2023-03-22T05:45:46.519Z,99219.81
2023-03-22T05:48:29.673Z,99224.31
2023-03-22T05:50:57.602Z,99220.25
2023-03-22T05:53:25.457Z,99217.97
2023-03-22T05:56:17.212Z,99224.31
2023-03-22T05:58:46.999Z,99215.34
2023-03-22T06:01:20.589Z,99225.97
2023-03-22T06:03:49.031Z,99222.28
2023-03-22T06:06:28.372Z,99235.78
2023-03-22T06:09:16.364Z,99233.53
2023-03-22T06:11:48.519Z,99236.19
2023-03-22T06:14:17.277Z,99234.53
2023-03-22T06:16:59.110Z,99246.41
2023-03-22T06:19:26.782Z,99235.34
2023-03-22T06:21:55.554Z,99243.13
2023-03-22T06:24:26.048Z,99242.28
2023-03-22T06:27:03.690Z,99238.19
2023-03-22T06:29:32.308Z,99241.25
2023-03-22T06:32:04.289Z,99234.91
2023-03-22T06:34:32.591Z,99236.94
2023-03-22T06:37:01.556Z,99232.03
2023-03-22T06:39:41.151Z,99228.34
2023-03-22T06:42:10.733Z,99237.34
2023-03-22T06:44:39.366Z,99227.28
2023-03-22T06:47:15.132Z,99219.31
2023-03-22T06:50:10.195Z,99224.00
2023-03-22T06:52:56.490Z,99211.94
2023-03-22T06:55:24.374Z,99211.53
2023-03-22T06:57:52.696Z,99215.97
2023-03-22T07:00:20.856Z,99221.69
2023-03-22T07:02:49.980Z,99213.03
2023-03-22T07:05:34.049Z,99219.78
2023-03-22T07:08:02.133Z,99220.56
2023-03-22T07:10:30.320Z,99226.06
2023-03-22T07:12:58.790Z,99226.44
2023-03-22T07:15:26.271Z,99227.25
2023-03-22T07:18:04.901Z,99231.50
2023-03-22T07:20:38.653Z,99225.09
2023-03-22T07:23:10.924Z,99229.81
2023-03-22T07:25:48.296Z,99216.19
2023-03-22T07:28:26.995Z,99220.03
2023-03-22T07:31:06.271Z,99217.03
2023-03-22T07:33:44.999Z,99221.53
2023-03-22T07:36:13.092Z,99233.31
2023-03-22T07:38:41.327Z,99226.28
2023-03-22T07:41:14.021Z,99217.22
2023-03-22T07:44:17.884Z,99213.75
2023-03-22T07:47:09.389Z,99216.28
2023-03-22T07:49:46.064Z,99214.06
2023-03-22T07:52:16.744Z,99215.78
2023-03-22T07:54:44.760Z,99209.47
2023-03-22T07:57:13.733Z,99206.06
2023-03-22T07:59:47.481Z,99206.16
2023-03-22T08:02:16.258Z,99203.28
2023-03-22T08:04:55.769Z,99206.03
2023-03-22T08:07:37.587Z,99204.19
2023-03-22T08:10:06.681Z,99204.47
2023-03-22T08:12:36.371Z,99204.94
2023-03-22T08:15:13.476Z,99202.78
2023-03-22T08:17:42.584Z,99205.94
2023-03-22T08:20:18.770Z,99190.13
2023-03-22T08:22:55.201Z,99196.41
2023-03-22T08:25:54.146Z,99189.41
2023-03-22T08:28:22.798Z,99191.06
2023-03-22T08:30:51.733Z,99186.84
2023-03-22T08:33:23.796Z,99189.75
2023-03-22T08:35:53.383Z,99186.78
2023-03-22T08:38:21.005Z,99177.66
2023-03-22T08:41:03.572Z,99186.19
2023-03-22T08:43:31.466Z,99180.06
2023-03-22T08:45:59.888Z,99179.50
2023-03-22T08:48:29.902Z,99176.75
2023-03-22T08:51:13.408Z,99173.53
2023-03-22T08:53:52.261Z,99175.97
2023-03-22T08:56:38.986Z,99172.59
2023-03-22T08:59:27.243Z,99169.56
2023-03-22T09:02:13.716Z,99168.25
2023-03-22T09:04:41.609Z,99167.94
2023-03-22T09:07:09.763Z,99164.50
2023-03-22T09:09:37.960Z,99160.25
2023-03-22T09:12:06.929Z,99152.56
2023-03-22T09:14:37.587Z,99146.97
2023-03-22T09:17:10.328Z,99154.56
2023-03-22T09:19:37.965Z,99142.31
2023-03-22T09:22:06.201Z,99140.88
2023-03-22T09:24:42.242Z,99134.75
2023-03-22T09:27:10.506Z,99138.25
2023-03-22T09:29:39.309Z,99137.28
2023-03-22T09:32:14.652Z,99134.19
2023-03-22T09:34:43.774Z,99137.25
2023-03-22T09:37:13.335Z,99133.06
2023-03-22T09:39:47.492Z,99129.56
2023-03-22T09:42:44.558Z,99123.22
2023-03-22T09:45:30.153Z,99122.75
2023-03-22T09:48:00.221Z,99120.59
2023-03-22T09:50:32.864Z,99115.22
2023-03-22T09:53:02.941Z,99115.81
2023-03-22T09:56:06.922Z,99108.34
2023-03-22T09:59:02.791Z,99111.16
2023-03-22T10:01:52.927Z,99103.09
2023-03-22T10:04:48.754Z,99093.44
2023-03-22T10:07:41.460Z,99090.22
2023-03-22T10:10:21.408Z,99091.06
2023-03-22T10:13:14.317Z,99083.81
2023-03-22T10:15:59.399Z,99087.09
2023-03-22T10:18:37.663Z,99080.06
2023-03-22T10:21:20.643Z,99074.72
2023-03-22T10:24:18.488Z,99079.84
2023-03-22T10:26:49.560Z,99068.28
2023-03-22T10:29:41.459Z,99067.19
2023-03-22T10:32:45.235Z,99068.03
2023-03-22T10:35:19.553Z,99068.28
2023-03-22T10:37:53.448Z,99061.84
2023-03-22T10:40:34.982Z,99065.09
2023-03-22T10:43:17.673Z,99065.66
2023-03-22T10:45:48.742Z,99058.09
2023-03-22T10:48:25.904Z,99056.72
2023-03-22T10:50:55.559Z,99059.94
2023-03-22T10:53:42.600Z,99054.81
2023-03-22T10:56:19.122Z,99052.63
2023-03-22T10:58:50.547Z,99038.00
2023-03-22T11:01:52.255Z,99045.81
2023-03-22T11:04:23.750Z,99043.38
2023-03-22T11:06:56.239Z,99037.44
2023-03-22T11:09:27.419Z,99043.34
2023-03-22T11:12:02.457Z,99042.19
2023-03-22T11:14:47.436Z,99035.66
2023-03-22T11:17:31.541Z,99028.31
2023-03-22T11:20:09.541Z,99024.75
2023-03-22T11:22:45.678Z,99028.44
2023-03-22T11:25:19.411Z,99025.88
2023-03-22T11:28:19.491Z,99024.22
2023-03-22T11:31:07.789Z,99022.53
2023-03-22T11:33:36.943Z,99022.19
2023-03-22T11:36:19.199Z,99010.72
2023-03-22T11:38:48.894Z,99012.34
2023-03-22T11:41:29.253Z,99012.34
2023-03-22T11:44:03.016Z,99013.88
2023-03-22T11:46:33.131Z,99005.84
2023-03-22T11:49:07.910Z,99002.84
2023-03-22T11:52:16.998Z,99005.50
2023-03-22T11:54:47.824Z,99000.28
2023-03-22T11:57:27.905Z,98995.22
2023-03-22T12:00:15.590Z,98995.47
2023-03-22T12:02:56.347Z,98995.56
2023-03-22T12:05:31.274Z,98985.75
2023-03-22T12:08:47.550Z,98980.63
2023-03-22T12:11:46.786Z,98980.09
2023-03-22T12:14:26.320Z,98980.31
2023-03-22T12:17:08.909Z,98972.09
2023-03-22T12:20:02.230Z,98978.53
2023-03-22T12:22:40.038Z,98976.44
2023-03-22T12:25:35.633Z,98971.41
2023-03-22T12:28:12.807Z,98966.16
2023-03-22T12:30:47.461Z,98957.53
2023-03-22T12:33:26.916Z,98956.78
2023-03-22T12:36:03.369Z,98958.22
2023-03-22T12:38:56.055Z,98949.88
2023-03-22T12:41:37.739Z,98945.56
2023-03-22T12:44:17.530Z,98946.03
2023-03-22T12:47:05.066Z,98942.25
2023-03-22T12:49:54.521Z,98934.56
2023-03-22T12:52:45.161Z,98935.03
2023-03-22T12:55:36.850Z,98934.03
2023-03-22T12:58:10.939Z,98931.19
2023-03-22T13:01:19.501Z,98934.00
2023-03-22T13:03:55.067Z,98930.19
2023-03-22T13:06:37.856Z,98932.56
2023-03-22T13:09:35.625Z,98928.81
2023-03-22T13:12:18.298Z,98934.22
2023-03-22T13:14:50.106Z,98924.25
2023-03-22T13:17:45.685Z,98920.97
2023-03-22T13:20:15.035Z,98916.25
2023-03-22T13:22:48.160Z,98908.81
2023-03-22T13:25:19.930Z,98906.66
2023-03-22T13:28:20.804Z,98905.03
2023-03-22T13:30:52.856Z,98897.16
2023-03-22T13:33:31.226Z,98891.00
2023-03-22T13:36:26.176Z,98893.06
2023-03-22T13:39:03.164Z,98886.25
2023-03-22T13:41:34.101Z,98878.81
2023-03-22T13:44:46.263Z,98876.66
2023-03-22T13:47:47.535Z,98875.94
2023-03-22T13:50:30.396Z,98876.22
2023-03-22T13:53:34.330Z,98868.06
2023-03-22T13:56:07.671Z,98864.19
2023-03-22T13:58:53.147Z,98859.88
2023-03-22T14:01:36.990Z,98859.47
2023-03-22T14:04:12.456Z,98844.84
2023-03-22T14:07:00.206Z,98851.13
2023-03-22T14:09:45.762Z,98843.38
2023-03-22T14:12:31.228Z,98833.09
2023-03-22T14:15:04.920Z,98835.22
2023-03-22T14:17:52.941Z,98829.72
2023-03-22T14:20:25.796Z,98837.09
